Time;durP1;ratioP1;P1;durP2;ratioP2;P2;SDS_P1;SDS_P2;PMS_P1;PMS_P2;Temp;Humidity;BMP_temperature;BMP_pressure;BME280_temperature;BME280_humidity;BME280_pressure;Samples;Min_cycle;Max_cycle;Signal;HPM_P1;HPM_P2
2021/08/09 00:01:24;;;;;;;3.33;1.57;;;14.90;99.90;;;;;;5073074;28;20205;-65
2021/08/09 00:03:50;;;;;;;2.67;1.63;;;14.80;99.90;;;;;;5072959;28;20209;-64
2021/08/09 00:06:21;;;;;;;4.93;1.70;;;14.70;99.90;;;;;;5073382;28;20204;-65
2021/08/09 00:08:49;;;;;;;3.47;1.40;;;14.50;99.90;;;;;;5073055;28;20204;-64
2021/08/09 00:11:16;;;;;;;2.17;1.47;;;14.60;99.90;;;;;;5073016;28;20233;-64
2021/08/09 00:13:43;;;;;;;4.00;1.77;;;14.60;99.90;;;;;;5072686;28;20584;-64
2021/08/09 00:16:09;;;;;;;3.40;1.73;;;14.70;99.90;;;;;;5072468;28;20216;-65
2021/08/09 00:18:36;;;;;;;3.47;1.80;;;14.60;99.90;;;;;;5072931;28;20204;-65
2021/08/09 00:21:04;;;;;;;2.07;1.53;;;14.60;99.90;;;;;;5074633;28;20664;-64
2021/08/09 00:23:30;;;;;;;5.63;1.50;;;14.60;99.90;;;;;;5073760;28;20204;-65
2021/08/09 00:25:58;;;;;;;4.40;1.60;;;14.60;99.90;;;;;;5074751;28;20209;-65
2021/08/09 00:28:25;;;;;;;3.83;1.60;;;14.60;99.90;;;;;;5076760;28;20205;-65
2021/08/09 00:30:52;;;;;;;5.63;1.70;;;14.70;99.90;;;;;;5076090;28;20238;-64
2021/08/09 00:33:18;;;;;;;1.80;1.30;;;14.70;99.90;;;;;;5076243;28;20233;-64
2021/08/09 00:35:45;;;;;;;4.43;1.70;;;14.70;99.90;;;;;;5073500;28;20209;-64
2021/08/09 00:38:12;;;;;;;2.87;1.60;;;14.70;99.90;;;;;;5072561;28;20242;-64
2021/08/09 00:40:38;;;;;;;1.57;1.47;;;14.70;99.90;;;;;;5072276;28;20229;-65
2021/08/09 00:43:06;;;;;;;2.67;1.60;;;14.60;99.90;;;;;;5072211;28;20209;-65
2021/08/09 00:45:34;;;;;;;4.63;1.60;;;14.60;99.90;;;;;;5071889;28;20205;-65
2021/08/09 00:48:00;;;;;;;6.00;1.90;;;14.60;99.90;;;;;;5071913;28;20724;-65
2021/08/09 00:50:27;;;;;;;4.03;1.70;;;14.60;99.90;;;;;;5072186;28;20225;-64
2021/08/09 00:52:54;;;;;;;2.10;1.70;;;14.50;99.90;;;;;;5071838;28;20704;-64
2021/08/09 00:55:21;;;;;;;2.80;1.63;;;14.40;99.90;;;;;;5071717;28;20562;-64
2021/08/09 00:57:48;;;;;;;5.60;1.90;;;14.30;99.90;;;;;;5071660;28;20573;-64
2021/08/09 01:00:16;;;;;;;4.47;1.87;;;14.30;99.90;;;;;;5071605;28;20229;-64
2021/08/09 01:02:43;;;;;;;3.97;1.50;;;14.30;99.90;;;;;;5071934;28;20255;-64
2021/08/09 01:05:12;;;;;;;4.10;1.70;;;14.20;99.90;;;;;;5071608;28;20212;-64
2021/08/09 01:07:48;;;;;;;2.40;1.70;;;14.10;99.90;;;;;;5071440;28;20560;-64
2021/08/09 01:10:21;;;;;;;3.20;1.87;;;14.10;99.90;;;;;;5070953;28;20597;-64
2021/08/09 01:12:55;;;;;;;5.83;2.10;;;14.10;99.90;;;;;;5071382;28;20235;-64
2021/08/09 01:15:29;;;;;;;2.60;1.53;;;14.00;99.90;;;;;;5071512;28;20216;-64
2021/08/09 01:18:00;;;;;;;5.30;2.13;;;13.90;99.90;;;;;;5071487;28;20212;-64
2021/08/09 01:20:40;;;;;;;2.93;1.83;;;13.90;99.90;;;;;;5071408;28;20646;-64
2021/08/09 01:23:16;;;;;;;3.43;2.10;;;13.90;99.90;;;;;;5071140;28;20203;-65
2021/08/09 01:25:49;;;;;;;2.23;1.50;;;13.80;99.90;;;;;;5071379;28;20243;-65
2021/08/09 01:28:19;;;;;;;5.27;2.07;;;13.80;99.90;;;;;;5071308;28;20232;-65
2021/08/09 01:30:49;;;;;;;1.80;1.40;;;13.80;99.90;;;;;;5070966;28;20650;-64
2021/08/09 01:33:17;;;;;;;3.40;1.97;;;13.70;99.90;;;;;;5071055;28;20225;-64
2021/08/09 01:35:46;;;;;;;2.70;1.90;;;13.70;99.90;;;;;;5071063;28;20623;-64
2021/08/09 01:38:16;;;;;;;4.73;2.10;;;13.60;99.90;;;;;;5071146;28;20216;-64
2021/08/09 01:40:46;;;;;;;4.17;1.90;;;13.60;99.90;;;;;;5071413;28;20220;-64
2021/08/09 01:43:13;;;;;;;3.20;1.60;;;13.60;99.90;;;;;;5071092;28;20661;-64
2021/08/09 01:45:42;;;;;;;3.37;1.70;;;13.50;99.90;;;;;;5070886;28;20690;-64
2021/08/09 01:48:10;;;;;;;4.20;1.90;;;13.60;99.90;;;;;;5070991;28;20219;-64
2021/08/09 01:50:38;;;;;;;4.67;1.97;;;13.50;99.90;;;;;;5071180;28;20728;-64
2021/08/09 01:53:06;;;;;;;2.60;1.93;;;13.50;99.90;;;;;;5070947;28;20256;-64
2021/08/09 01:55:33;;;;;;;3.67;1.60;;;13.40;99.90;;;;;;5070737;28;20457;-65
2021/08/09 01:57:59;;;;;;;3.53;1.80;;;13.40;99.90;;;;;;5070674;28;20750;-65
2021/08/09 02:00:29;;;;;;;5.60;1.93;;;13.50;99.90;;;;;;5070633;28;20278;-64
2021/08/09 02:02:57;;;;;;;5.87;2.00;;;13.40;99.90;;;;;;5071024;28;20209;-64
2021/08/09 02:05:25;;;;;;;4.33;1.60;;;13.40;99.90;;;;;;5070833;28;20212;-64
2021/08/09 02:07:52;;;;;;;2.23;1.70;;;13.30;99.90;;;;;;5070704;28;20247;-64
2021/08/09 02:10:22;;;;;;;3.10;1.80;;;13.30;99.90;;;;;;5070775;28;20229;-64
2021/08/09 02:12:54;;;;;;;2.67;1.70;;;13.30;99.90;;;;;;5070617;28;20213;-65
2021/08/09 02:15:27;;;;;;;5.20;2.30;;;13.30;99.90;;;;;;5070569;28;20205;-65
2021/08/09 02:18:04;;;;;;;2.53;1.63;;;13.30;99.90;;;;;;5070760;28;20216;-65
2021/08/09 02:20:33;;;;;;;3.63;1.90;;;13.30;99.90;;;;;;5070619;28;20224;-64
2021/08/09 02:23:04;;;;;;;2.70;1.93;;;13.30;99.90;;;;;;5072373;28;20208;-64
2021/08/09 02:25:33;;;;;;;3.53;2.00;;;13.30;99.90;;;;;;5074527;28;20614;-64
2021/08/09 02:28:06;;;;;;;3.30;1.93;;;13.30;99.90;;;;;;5074726;28;20236;-65
2021/08/09 02:30:34;;;;;;;2.27;1.80;;;13.20;99.90;;;;;;5074594;28;20259;-64
2021/08/09 02:33:04;;;;;;;2.27;1.50;;;13.10;99.90;;;;;;5074396;28;20228;-64
2021/08/09 02:35:32;;;;;;;4.13;2.00;;;13.10;99.90;;;;;;5074377;28;20672;-64
2021/08/09 02:37:59;;;;;;;3.43;2.07;;;13.10;99.90;;;;;;5074413;28;20262;-64
2021/08/09 02:40:27;;;;;;;4.10;2.03;;;13.00;99.90;;;;;;5074667;28;20228;-64
2021/08/09 02:42:54;;;;;;;3.10;1.70;;;13.10;99.90;;;;;;5074571;28;20684;-64
2021/08/09 02:45:21;;;;;;;2.90;1.77;;;13.10;99.90;;;;;;5074472;28;20559;-64
2021/08/09 02:47:50;;;;;;;4.07;2.03;;;13.20;99.90;;;;;;5074347;28;20347;-64
2021/08/09 02:50:18;;;;;;;5.60;1.73;;;13.10;99.90;;;;;;5074284;28;20224;-65
2021/08/09 02:52:45;;;;;;;2.63;1.97;;;13.10;99.90;;;;;;5074210;28;20699;-64
2021/08/09 02:55:14;;;;;;;4.37;2.00;;;13.10;99.90;;;;;;5074386;28;20282;-64
2021/08/09 02:57:43;;;;;;;4.63;1.80;;;13.00;99.90;;;;;;5074493;28;20259;-64
2021/08/09 03:00:10;;;;;;;4.37;1.70;;;13.10;99.90;;;;;;5074225;28;20735;-64
2021/08/09 03:02:39;;;;;;;6.80;2.20;;;13.00;99.90;;;;;;5074244;28;20212;-64
2021/08/09 03:05:07;;;;;;;3.07;1.70;;;12.90;99.90;;;;;;5073993;28;20201;-65
2021/08/09 03:07:37;;;;;;;3.67;1.90;;;12.90;99.90;;;;;;5073973;28;20570;-64
2021/08/09 03:10:07;;;;;;;4.23;2.00;;;12.80;99.90;;;;;;5074227;28;20240;-64
2021/08/09 03:12:34;;;;;;;2.70;1.90;;;12.80;99.90;;;;;;5073886;28;20220;-64
2021/08/09 03:15:02;;;;;;;4.13;1.80;;;12.70;99.90;;;;;;5073591;28;20225;-64
2021/08/09 03:17:29;;;;;;;3.13;1.60;;;12.70;99.90;;;;;;5073551;28;20204;-64
2021/08/09 03:19:56;;;;;;;3.80;1.87;;;12.70;99.90;;;;;;5073458;28;20316;-64
2021/08/09 03:22:22;;;;;;;3.20;2.20;;;12.70;99.90;;;;;;5073930;28;20205;-64
2021/08/09 03:24:50;;;;;;;3.50;2.10;;;12.70;99.90;;;;;;5073707;28;20205;-64
2021/08/09 03:27:17;;;;;;;3.83;2.10;;;12.70;99.90;;;;;;5073534;28;20227;-64
2021/08/09 03:29:44;;;;;;;2.67;1.87;;;12.60;99.90;;;;;;5073877;28;20256;-63
2021/08/09 03:32:10;;;;;;;3.67;2.17;;;12.60;99.90;;;;;;5073296;28;20266;-63
2021/08/09 03:34:37;;;;;;;5.00;2.50;;;12.50;99.90;;;;;;5072689;28;20323;-63
2021/08/09 03:37:04;;;;;;;6.00;2.40;;;12.50;99.90;;;;;;5073572;28;20205;-63
2021/08/09 03:39:30;;;;;;;2.80;1.70;;;12.50;99.90;;;;;;5073284;28;20232;-63
2021/08/09 03:41:58;;;;;;;3.87;2.20;;;12.50;99.90;;;;;;5073325;28;20201;-63
2021/08/09 03:44:25;;;;;;;5.57;2.23;;;12.50;99.90;;;;;;5073104;28;20209;-63
2021/08/09 03:46:52;;;;;;;4.90;2.30;;;12.50;99.90;;;;;;5073695;28;20213;-63
2021/08/09 03:49:18;;;;;;;3.97;2.23;;;12.50;99.90;;;;;;5073312;28;20232;-63
2021/08/09 03:51:45;;;;;;;3.97;2.23;;;12.30;99.90;;;;;;5073159;28;20208;-63
2021/08/09 03:54:12;;;;;;;3.47;1.93;;;12.40;99.90;;;;;;5073076;28;20231;-63
2021/08/09 03:56:39;;;;;;;2.67;1.83;;;12.40;99.90;;;;;;5073020;28;20207;-63
2021/08/09 03:59:07;;;;;;;4.43;2.00;;;12.40;99.90;;;;;;5072635;28;20220;-63
2021/08/09 04:01:38;;;;;;;4.27;1.90;;;12.30;99.90;;;;;;5072843;28;20201;-63
2021/08/09 04:04:05;;;;;;;4.43;2.03;;;12.20;99.90;;;;;;5072649;28;20665;-63
2021/08/09 04:06:32;;;;;;;4.73;2.10;;;12.20;99.90;;;;;;5073109;28;20208;-63
2021/08/09 04:08:59;;;;;;;4.07;2.00;;;12.10;99.90;;;;;;5072926;28;20205;-63
2021/08/09 04:11:26;;;;;;;4.23;2.00;;;12.20;99.90;;;;;;5072913;28;20258;-63
2021/08/09 04:13:52;;;;;;;4.07;2.13;;;12.20;99.90;;;;;;5072512;28;20717;-63
2021/08/09 04:16:20;;;;;;;5.60;2.00;;;12.40;99.90;;;;;;5073066;28;20665;-63
2021/08/09 04:18:47;;;;;;;5.73;2.60;;;12.50;99.90;;;;;;5072609;28;20212;-64
2021/08/09 04:21:14;;;;;;;2.53;2.00;;;12.60;99.90;;;;;;5072629;28;20624;-64
2021/08/09 04:23:40;;;;;;;3.30;1.80;;;12.70;99.90;;;;;;5072450;28;20208;-64
2021/08/09 04:26:07;;;;;;;3.17;2.00;;;12.80;99.90;;;;;;5072425;28;20719;-63
2021/08/09 04:28:34;;;;;;;3.53;1.90;;;12.90;99.90;;;;;;5072325;28;20212;-63
2021/08/09 04:31:00;;;;;;;5.63;2.60;;;12.90;99.90;;;;;;5072098;28;20241;-63
2021/08/09 04:33:29;;;;;;;3.47;2.00;;;12.90;99.90;;;;;;5072279;28;20287;-63
2021/08/09 04:35:55;;;;;;;4.33;2.17;;;12.90;99.90;;;;;;5072192;28;20212;-63
2021/08/09 04:38:22;;;;;;;4.60;1.70;;;13.10;99.90;;;;;;5071959;28;20266;-63
2021/08/09 04:40:49;;;;;;;3.40;2.57;;;13.20;99.90;;;;;;5072034;28;20322;-62
2021/08/09 04:43:16;;;;;;;2.97;2.00;;;13.20;99.90;;;;;;5072097;28;20232;-62
2021/08/09 04:45:42;;;;;;;4.23;2.27;;;13.30;99.90;;;;;;5071405;28;20204;-63
2021/08/09 04:48:09;;;;;;;4.17;2.53;;;13.50;99.90;;;;;;5071969;28;20213;-62
2021/08/09 04:50:37;;;;;;;6.23;2.00;;;13.60;99.90;;;;;;5071795;28;20225;-62
2021/08/09 04:53:07;;;;;;;4.27;2.20;;;13.50;99.90;;;;;;5071716;28;20212;-63
2021/08/09 04:55:34;;;;;;;2.73;2.00;;;13.70;99.90;;;;;;5071473;28;20287;-62
2021/08/09 04:58:01;;;;;;;6.43;2.37;;;13.60;99.90;;;;;;5071436;28;20215;-62
2021/08/09 05:00:27;;;;;;;2.87;1.87;;;13.70;99.90;;;;;;5071823;28;20445;-62
2021/08/09 05:02:54;;;;;;;6.77;2.00;;;13.80;99.90;;;;;;5071592;28;20734;-62
2021/08/09 05:05:21;;;;;;;3.03;1.77;;;13.90;99.90;;;;;;5071296;28;20680;-62
2021/08/09 05:07:49;;;;;;;8.37;3.60;;;14.00;99.90;;;;;;5071190;28;20201;-63
2021/08/09 05:10:16;;;;;;;5.93;2.60;;;14.20;99.90;;;;;;5071291;28;20319;-62
2021/08/09 05:12:42;;;;;;;8.33;5.07;;;14.30;99.90;;;;;;5071322;28;20220;-62
2021/08/09 05:15:10;;;;;;;34.97;26.37;;;14.50;99.90;;;;;;5071110;28;20654;-62
2021/08/09 05:17:37;;;;;;;35.93;26.60;;;14.60;99.90;;;;;;5071385;28;20204;-63
2021/08/09 05:20:05;;;;;;;76.60;49.10;;;14.70;99.90;;;;;;5071158;28;20244;-62
2021/08/09 05:22:33;;;;;;;9.17;5.50;;;14.80;99.90;;;;;;5071138;28;20398;-62
2021/08/09 05:25:03;;;;;;;7.27;5.70;;;14.90;99.90;;;;;;5071135;28;20212;-63
2021/08/09 05:27:30;;;;;;;7.90;5.77;;;14.90;99.90;;;;;;5071582;28;20623;-63
2021/08/09 05:29:56;;;;;;;5.40;2.40;;;14.90;99.90;;;;;;5071061;28;20319;-62
2021/08/09 05:32:23;;;;;;;4.17;2.00;;;14.90;99.90;;;;;;5071085;28;20262;-62
2021/08/09 05:34:50;;;;;;;4.80;2.00;;;14.90;99.90;;;;;;5070925;28;20594;-62
2021/08/09 05:37:17;;;;;;;2.47;1.53;;;14.90;99.90;;;;;;5071577;28;20212;-62
2021/08/09 05:39:43;;;;;;;2.27;1.60;;;15.10;99.90;;;;;;5070996;28;20610;-63
2021/08/09 05:42:11;;;;;;;1.70;1.57;;;15.30;99.90;;;;;;5070938;28;20216;-63
2021/08/09 05:44:38;;;;;;;3.83;1.30;;;16.60;99.90;;;;;;5070682;28;20208;-63
2021/08/09 05:47:05;;;;;;;3.38;1.35;;;18.40;99.90;;;;;;5070851;28;20212;-63
2021/08/09 05:49:31;;;;;;;6.40;1.60;;;20.20;99.90;;;;;;5070616;28;20232;-63
2021/08/09 05:51:58;;;;;;;2.83;1.38;;;21.60;99.90;;;;;;5071078;28;20229;-63
2021/08/09 05:54:25;;;;;;;2.00;1.15;;;22.90;99.90;;;;;;5070718;28;20220;-63
2021/08/09 05:56:52;;;;;;;1.92;1.00;;;23.90;99.90;;;;;;5070403;28;20224;-63
2021/08/09 05:59:20;;;;;;;3.70;1.50;;;24.80;99.90;;;;;;5070478;28;20225;-63
2021/08/09 06:01:46;;;;;;;6.70;1.42;;;25.80;99.90;;;;;;5070666;28;20590;-64
2021/08/09 06:04:13;;;;;;;2.92;1.05;;;26.60;98.50;;;;;;5070540;28;20205;-63
2021/08/09 06:06:40;;;;;;;3.97;1.55;;;27.30;95.70;;;;;;5070956;28;20212;-64
2021/08/09 06:09:06;;;;;;;2.70;1.35;;;28.00;92.60;;;;;;5070531;28;20474;-64
2021/08/09 06:11:33;;;;;;;4.05;1.20;;;28.60;90.60;;;;;;5070630;28;20660;-64
2021/08/09 06:14:00;;;;;;;3.78;1.10;;;29.20;87.40;;;;;;5070671;28;20205;-64
2021/08/09 06:16:28;;;;;;;1.40;1.30;;;29.90;82.20;;;;;;5070615;28;20217;-59
2021/08/09 06:18:55;;;;;;;3.53;1.40;;;30.30;78.90;;;;;;5070385;28;20483;-59
2021/08/09 06:21:21;;;;;;;2.63;1.13;;;30.60;75.50;;;;;;5070838;28;20236;-57
2021/08/09 06:23:48;;;;;;;1.52;1.10;;;30.50;74.40;;;;;;5067681;28;20212;-60
2021/08/09 06:26:15;;;;;;;3.15;1.30;;;30.60;73.00;;;;;;5070186;28;20724;-60
2021/08/09 06:28:42;;;;;;;2.00;1.17;;;30.60;72.30;;;;;;5070373;28;20219;-61
2021/08/09 06:31:08;;;;;;;4.03;1.45;;;30.50;71.50;;;;;;5070494;28;20205;-61
2021/08/09 06:33:36;;;;;;;1.83;0.98;;;30.50;70.90;;;;;;5069971;28;20240;-60
2021/08/09 06:36:03;;;;;;;3.17;1.38;;;30.60;70.20;;;;;;5070630;28;20232;-60
2021/08/09 06:38:30;;;;;;;9.35;1.30;;;30.90;69.10;;;;;;5070548;28;20209;-60
2021/08/09 06:40:57;;;;;;;2.75;1.10;;;31.10;67.30;;;;;;5070465;28;20231;-66
2021/08/09 06:43:23;;;;;;;3.60;1.15;;;31.00;68.10;;;;;;5070157;28;20556;-66
2021/08/09 06:45:50;;;;;;;3.03;1.02;;;31.40;66.90;;;;;;5070325;28;20205;-64
2021/08/09 06:48:17;;;;;;;3.17;0.95;;;32.30;64.50;;;;;;5070159;28;20205;-65
2021/08/09 06:50:45;;;;;;;1.65;1.02;;;33.30;62.00;;;;;;5070449;28;20232;-66
2021/08/09 06:53:12;;;;;;;1.92;1.10;;;34.20;58.90;;;;;;5070856;28;20216;-68
2021/08/09 06:55:39;;;;;;;3.20;1.15;;;34.60;56.50;;;;;;5069962;28;20236;-66
2021/08/09 06:58:05;;;;;;;2.35;1.00;;;34.90;55.00;;;;;;5070133;28;20201;-69
2021/08/09 07:00:32;;;;;;;2.55;1.10;;;35.00;54.80;;;;;;5070223;28;20233;-71
2021/08/09 07:03:06;;;;;;;2.00;1.05;;;35.50;53.40;;;;;;5070502;28;20208;-65
2021/08/09 07:05:38;;;;;;;2.88;1.10;;;35.80;52.60;;;;;;5070239;28;20566;-66
2021/08/09 07:08:07;;;;;;;2.05;1.00;;;36.20;52.20;;;;;;5070801;28;20205;-67
2021/08/09 07:10:33;;;;;;;2.08;1.05;;;36.80;50.70;;;;;;5078644;28;20225;-64
2021/08/09 07:13:00;;;;;;;1.60;1.17;;;37.10;49.20;;;;;;5075405;28;20213;-65
2021/08/09 07:15:27;;;;;;;2.78;1.15;;;37.20;49.10;;;;;;5075189;28;20244;-65
2021/08/09 07:17:53;;;;;;;1.08;0.77;;;37.50;48.20;;;;;;5074234;28;20205;-65
2021/08/09 07:20:20;;;;;;;1.02;0.75;;;37.60;47.60;;;;;;5073664;28;20240;-65
2021/08/09 07:22:47;;;;;;;2.28;1.05;;;37.80;46.90;;;;;;5073752;28;20212;-65
2021/08/09 07:25:17;;;;;;;2.58;1.13;;;38.70;45.10;;;;;;5073608;28;20204;-65
2021/08/09 07:27:44;;;;;;;1.83;0.77;;;38.80;44.20;;;;;;5073590;28;20201;-65
2021/08/09 07:30:13;;;;;;;1.90;0.82;;;39.20;43.80;;;;;;5073336;28;20744;-66
2021/08/09 07:32:41;;;;;;;2.88;0.98;;;39.70;42.30;;;;;;5073496;28;20303;-65
2021/08/09 07:35:08;;;;;;;1.83;0.80;;;40.40;42.10;;;;;;5072933;28;20700;-63
2021/08/09 07:37:35;;;;;;;2.33;0.82;;;41.40;40.40;;;;;;5073459;28;20665;-63
2021/08/09 07:40:02;;;;;;;3.42;1.00;;;42.00;39.60;;;;;;5073453;28;20224;-64
2021/08/09 07:42:30;;;;;;;2.15;1.17;;;41.50;38.80;;;;;;5073691;28;20587;-64
2021/08/09 07:44:57;;;;;;;4.53;1.17;;;40.90;39.20;;;;;;5073393;28;20200;-63
2021/08/09 07:47:24;;;;;;;2.22;0.77;;;40.70;39.50;;;;;;5074032;28;20269;-62
2021/08/09 07:49:51;;;;;;;2.05;0.95;;;40.40;38.90;;;;;;5072969;28;20228;-62
2021/08/09 07:52:18;;;;;;;3.28;0.95;;;40.10;39.20;;;;;;5073377;28;20200;-63
2021/08/09 07:54:44;;;;;;;2.80;0.98;;;40.10;39.20;;;;;;5072788;28;20220;-63
2021/08/09 07:57:11;;;;;;;3.10;0.95;;;40.50;38.50;;;;;;5073095;28;20231;-63
2021/08/09 07:59:39;;;;;;;2.55;0.90;;;40.70;38.20;;;;;;5073012;28;20220;-64
2021/08/09 08:02:06;;;;;;;3.38;0.90;;;39.70;39.80;;;;;;5072825;28;20207;-64
2021/08/09 08:04:33;;;;;;;3.28;1.00;;;39.00;39.80;;;;;;5072739;28;20204;-64
2021/08/09 08:07:00;;;;;;;1.33;0.90;;;38.40;40.80;;;;;;5072745;28;20224;-64
2021/08/09 08:09:27;;;;;;;1.27;0.80;;;38.00;41.30;;;;;;5072527;28;20232;-64
2021/08/09 08:11:53;;;;;;;2.35;0.80;;;37.40;41.30;;;;;;5073301;28;20208;-64
2021/08/09 08:14:20;;;;;;;4.40;1.00;;;37.20;41.50;;;;;;5073169;28;20209;-64
2021/08/09 08:16:48;;;;;;;3.05;0.82;;;37.10;41.80;;;;;;5072968;28;20409;-65
2021/08/09 08:19:15;;;;;;;2.17;0.98;;;37.20;41.40;;;;;;5072268;28;20575;-65
2021/08/09 08:21:42;;;;;;;2.60;1.10;;;37.40;41.50;;;;;;5072288;28;20216;-64
2021/08/09 08:24:08;;;;;;;2.33;1.23;;;37.40;41.10;;;;;;5072368;28;20300;-64
2021/08/09 08:26:35;;;;;;;2.80;0.98;;;37.00;42.00;;;;;;5072183;28;20197;-64
2021/08/09 08:29:02;;;;;;;4.85;1.15;;;37.30;42.00;;;;;;5072087;28;20233;-64
2021/08/09 08:31:28;;;;;;;1.70;0.95;;;37.50;41.90;;;;;;5072126;28;20204;-64
2021/08/09 08:33:56;;;;;;;1.77;1.10;;;37.50;41.70;;;;;;5071971;28;20207;-64
2021/08/09 08:36:23;;;;;;;1.65;0.80;;;37.40;41.70;;;;;;5071860;28;20704;-65
2021/08/09 08:38:50;;;;;;;1.95;0.93;;;36.80;42.30;;;;;;5071903;28;20209;-64
2021/08/09 08:41:17;;;;;;;1.67;0.88;;;35.70;43.70;;;;;;5072079;28;20676;-65
2021/08/09 08:43:45;;;;;;;1.38;0.80;;;34.40;45.20;;;;;;5071805;28;20243;-63
2021/08/09 08:46:12;;;;;;;1.75;0.90;;;32.90;47.10;;;;;;5071677;28;20209;-64
2021/08/09 08:48:39;;;;;;;5.43;0.93;;;31.60;49.20;;;;;;5071442;28;20738;-64
2021/08/09 08:51:07;;;;;;;2.70;1.30;;;30.60;50.60;;;;;;5071370;28;20229;-64
2021/08/09 08:53:35;;;;;;;3.17;0.85;;;29.90;51.60;;;;;;5071632;28;20216;-63
2021/08/09 08:56:05;;;;;;;2.33;1.10;;;29.20;52.20;;;;;;5072386;28;20231;-63
2021/08/09 08:58:32;;;;;;;2.85;1.30;;;28.60;54.20;;;;;;5071694;28;20595;-64
2021/08/09 09:00:59;;;;;;;2.72;1.15;;;28.10;55.50;;;;;;5071793;28;20228;-64
2021/08/09 09:03:28;;;;;;;2.88;1.00;;;27.60;56.60;;;;;;5073151;28;20211;-63
2021/08/09 09:06:04;;;;;;;3.55;1.17;;;27.50;57.00;;;;;;5072904;28;20703;-64
2021/08/09 09:08:42;;;;;;;2.80;1.20;;;27.20;57.20;;;;;;5071529;28;20208;-64
2021/08/09 09:11:12;;;;;;;3.88;1.20;;;26.80;58.00;;;;;;5071693;28;20209;-64
2021/08/09 09:13:53;;;;;;;1.80;0.70;;;26.50;58.60;;;;;;5071282;28;20205;-64
2021/08/09 09:16:20;;;;;;;3.45;1.30;;;26.20;59.30;;;;;;5071491;28;20224;-64
2021/08/09 09:18:52;;;;;;;3.22;0.90;;;26.00;60.30;;;;;;5071277;28;20201;-64
2021/08/09 09:21:28;;;;;;;1.90;1.05;;;25.80;61.30;;;;;;5071298;28;20216;-64
2021/08/09 09:24:07;;;;;;;3.72;1.75;;;25.70;61.50;;;;;;5070935;28;20660;-64
2021/08/09 09:26:35;;;;;;;3.55;0.98;;;25.50;61.90;;;;;;5071102;28;20201;-64
2021/08/09 09:29:07;;;;;;;4.75;1.33;;;25.40;61.60;;;;;;5071558;28;20228;-66
2021/08/09 09:31:34;;;;;;;2.10;0.82;;;25.40;62.50;;;;;;5070529;28;20211;-62
2021/08/09 09:34:04;;;;;;;1.33;0.90;;;25.40;61.80;;;;;;5070790;28;20219;-62
2021/08/09 09:36:47;;;;;;;2.15;1.10;;;25.60;61.10;;;;;;5072027;28;20224;-63
2021/08/09 09:39:30;;;;;;;3.05;1.08;;;25.90;61.30;;;;;;5070977;28;20311;-63
2021/08/09 09:41:57;;;;;;;3.50;0.93;;;26.10;60.40;;;;;;5071094;28;20212;-63
2021/08/09 09:44:25;;;;;;;3.30;0.93;;;26.40;60.20;;;;;;5070840;28;20221;-63
2021/08/09 09:46:52;;;;;;;3.17;1.10;;;26.80;59.20;;;;;;5070825;28;20205;-63
2021/08/09 09:49:32;;;;;;;1.70;0.90;;;27.10;58.40;;;;;;5070538;28;20229;-63
2021/08/09 09:51:59;;;;;;;4.22;1.40;;;27.40;58.30;;;;;;5070957;28;20282;-63
2021/08/09 09:54:28;;;;;;;1.75;0.85;;;27.70;58.30;;;;;;5070870;28;20212;-64
2021/08/09 09:56:55;;;;;;;4.47;1.20;;;27.90;57.60;;;;;;5071107;28;20235;-63
2021/08/09 09:59:26;;;;;;;1.73;1.15;;;28.00;57.30;;;;;;5070679;28;20229;-62
2021/08/09 10:01:52;;;;;;;1.30;0.70;;;28.00;57.00;;;;;;5070598;28;20247;-62
2021/08/09 10:04:19;;;;;;;1.70;0.98;;;27.70;57.10;;;;;;5070567;28;20239;-62
2021/08/09 10:06:47;;;;;;;2.67;1.38;;;27.50;57.60;;;;;;5070509;28;20586;-62
2021/08/09 10:09:14;;;;;;;2.95;1.08;;;27.30;58.60;;;;;;5070489;28;20231;-62
2021/08/09 10:11:44;;;;;;;2.22;1.00;;;27.10;59.30;;;;;;5070639;28;20656;-64
2021/08/09 10:14:11;;;;;;;1.63;0.90;;;27.10;59.70;;;;;;5070563;28;20235;-62
2021/08/09 10:16:39;;;;;;;2.45;1.10;;;27.10;59.60;;;;;;5070656;28;20241;-62
2021/08/09 10:19:08;;;;;;;4.10;1.15;;;27.00;58.60;;;;;;5070961;28;20274;-62
2021/08/09 10:21:37;;;;;;;4.38;1.00;;;27.10;59.20;;;;;;5070672;28;20215;-62
2021/08/09 10:24:04;;;;;;;2.85;1.10;;;27.10;58.90;;;;;;5070437;28;20212;-62
2021/08/09 10:26:49;;;;;;;6.18;1.85;;;27.00;58.40;;;;;;5070117;28;20197;-62
2021/08/09 10:29:15;;;;;;;2.17;1.42;;;26.80;58.20;;;;;;5070319;28;20247;-62
2021/08/09 10:31:47;;;;;;;3.78;1.10;;;26.80;57.90;;;;;;5070367;28;20209;-62
2021/08/09 10:34:32;;;;;;;3.75;1.40;;;26.90;58.30;;;;;;5070203;28;20645;-62
2021/08/09 10:37:13;;;;;;;1.55;0.85;;;27.00;58.40;;;;;;5070045;28;20316;-62
2021/08/09 10:39:54;;;;;;;2.72;1.20;;;26.60;59.40;;;;;;5070194;28;20232;-62
2021/08/09 10:42:36;;;;;;;1.30;0.90;;;26.40;59.60;;;;;;5070424;28;20680;-62
2021/08/09 10:45:05;;;;;;;2.67;1.00;;;26.50;59.70;;;;;;5073428;28;20216;-62
2021/08/09 10:47:51;;;;;;;2.45;0.75;;;26.80;59.30;;;;;;5073790;28;20212;-62
2021/08/09 10:50:49;;;;;;;1.23;0.88;;;27.20;58.10;;;;;;5074118;28;20339;-62
2021/08/09 10:53:40;;;;;;;2.65;1.00;;;27.60;57.30;;;;;;5073947;28;20209;-62
2021/08/09 10:56:07;;;;;;;3.65;1.45;;;27.80;56.80;;;;;;5074664;28;20224;-62
2021/08/09 10:58:56;;;;;;;2.03;1.13;;;28.00;56.40;;;;;;5074466;28;20215;-62
2021/08/09 11:01:24;;;;;;;3.03;0.98;;;28.40;54.50;;;;;;5073908;28;20661;-62
2021/08/09 11:04:13;;;;;;;2.22;0.88;;;28.70;53.60;;;;;;5074293;28;20205;-62
2021/08/09 11:06:42;;;;;;;1.90;1.00;;;29.00;53.90;;;;;;5074193;28;20228;-63
2021/08/09 11:09:44;;;;;;;1.27;0.90;;;29.20;52.90;;;;;;5073767;28;20256;-62
2021/08/09 11:12:22;;;;;;;2.60;0.95;;;29.20;52.80;;;;;;5073872;28;20208;-62
2021/08/09 11:15:25;;;;;;;2.20;1.20;;;29.00;52.90;;;;;;5073658;28;20680;-62
2021/08/09 11:17:58;;;;;;;2.25;1.00;;;29.00;53.60;;;;;;5073847;28;20201;-62
2021/08/09 11:20:28;;;;;;;5.68;0.90;;;29.30;52.80;;;;;;5073792;28;20237;-62
2021/08/09 11:23:16;;;;;;;2.42;1.00;;;29.60;52.10;;;;;;5073802;28;20695;-62
2021/08/09 11:25:45;;;;;;;2.83;1.10;;;29.70;52.70;;;;;;5068665;28;20677;-62
2021/08/09 11:28:15;;;;;;;2.15;1.00;;;29.90;52.60;;;;;;5073725;28;20232;-62
2021/08/09 11:30:45;;;;;;;1.73;0.90;;;29.90;52.20;;;;;;5073398;28;20236;-62
2021/08/09 11:33:30;;;;;;;4.18;0.90;;;30.00;52.40;;;;;;5073389;28;20213;-62
2021/08/09 11:36:00;;;;;;;1.88;1.00;;;30.10;53.00;;;;;;5073484;28;20235;-62
2021/08/09 11:38:28;;;;;;;3.05;1.10;;;30.30;52.50;;;;;;5073750;28;20212;-62
2021/08/09 11:40:59;;;;;;;2.40;1.13;;;30.40;51.70;;;;;;5073446;28;20236;-62
2021/08/09 11:43:28;;;;;;;2.17;1.30;;;30.50;51.90;;;;;;5073065;28;20249;-62
2021/08/09 11:45:56;;;;;;;3.13;1.05;;;30.50;52.70;;;;;;5072866;28;20200;-62
2021/08/09 11:48:30;;;;;;;2.05;1.40;;;30.40;52.60;;;;;;5073472;28;20204;-61
2021/08/09 11:51:01;;;;;;;2.88;0.85;;;30.40;51.90;;;;;;5073063;28;20293;-62
2021/08/09 11:53:28;;;;;;;2.30;0.82;;;30.30;52.60;;;;;;5073106;28;20212;-61
2021/08/09 11:56:06;;;;;;;3.88;1.38;;;30.20;52.90;;;;;;5072717;28;20205;-62
2021/08/09 11:58:33;;;;;;;1.58;1.02;;;30.00;54.00;;;;;;5072930;28;20213;-62
2021/08/09 12:00:59;;;;;;;4.00;1.80;;;29.90;55.40;;;;;;5072901;28;20235;-62
2021/08/09 12:03:27;;;;;;;3.97;1.10;;;29.70;55.90;;;;;;5072949;28;20635;-62
2021/08/09 12:05:57;;;;;;;1.75;1.00;;;29.30;56.10;;;;;;5072828;28;20258;-62
2021/08/09 12:08:24;;;;;;;1.95;1.05;;;29.00;56.20;;;;;;5072770;28;20240;-62
2021/08/09 12:10:52;;;;;;;3.28;1.10;;;28.70;56.40;;;;;;5072703;28;20599;-62
2021/08/09 12:13:27;;;;;;;2.92;1.13;;;28.20;56.90;;;;;;5072631;28;20263;-62
2021/08/09 12:16:11;;;;;;;2.63;1.00;;;27.70;58.30;;;;;;5073447;28;20219;-61
2021/08/09 12:18:39;;;;;;;2.55;1.13;;;27.50;59.10;;;;;;5073768;28;20201;-61
2021/08/09 12:21:12;;;;;;;3.22;1.00;;;27.60;58.80;;;;;;5074069;28;20312;-62
2021/08/09 12:23:53;;;;;;;3.63;1.20;;;27.80;58.20;;;;;;5074088;28;20209;-62
2021/08/09 12:26:22;;;;;;;1.77;1.10;;;27.80;58.60;;;;;;5074349;28;20201;-62
2021/08/09 12:28:51;;;;;;;2.50;1.02;;;27.80;58.90;;;;;;5074137;28;20201;-62
2021/08/09 12:31:30;;;;;;;2.58;0.93;;;27.60;58.70;;;;;;5074252;28;20211;-62
2021/08/09 12:34:00;;;;;;;0.98;0.73;;;27.50;58.80;;;;;;5073637;28;20692;-62
2021/08/09 12:36:28;;;;;;;1.65;1.00;;;27.40;59.20;;;;;;5074120;28;20293;-62
2021/08/09 12:38:55;;;;;;;2.00;1.02;;;27.50;59.40;;;;;;5072384;28;20610;-62
2021/08/09 12:41:26;;;;;;;3.28;0.80;;;27.60;58.80;;;;;;5072197;28;20212;-62
2021/08/09 12:43:53;;;;;;;2.67;1.10;;;27.60;59.00;;;;;;5071779;28;20696;-62
2021/08/09 12:46:20;;;;;;;2.72;1.20;;;27.50;58.70;;;;;;5071888;28;20689;-62
2021/08/09 12:48:48;;;;;;;4.07;1.25;;;27.50;58.70;;;;;;5071920;28;20309;-62
2021/08/09 12:51:14;;;;;;;4.07;1.30;;;27.50;59.10;;;;;;5072128;28;20235;-62
2021/08/09 12:53:42;;;;;;;1.95;0.82;;;27.40;60.00;;;;;;5071905;28;20212;-62
2021/08/09 12:56:09;;;;;;;3.20;1.10;;;27.50;60.00;;;;;;5071553;28;20216;-62